sensor_id;sensor_type;location;lat;lon;timestamp;P1;durP1;ratioP1;P2;durP2;ratioP2
47329;SDS011;33060;50.178;7.570;2022-10-31T00:01:12;4.78;;;3.60;;
47329;SDS011;33060;50.178;7.570;2022-10-31T00:03:40;9.10;;;3.83;;
47329;SDS011;33060;50.178;7.570;2022-10-31T00:06:06;6.20;;;3.60;;
47329;SDS011;33060;50.178;7.570;2022-10-31T00:08:33;8.35;;;4.55;;
47329;SDS011;33060;50.178;7.570;2022-10-31T00:11:00;6.32;;;3.75;;
47329;SDS011;33060;50.178;7.570;2022-10-31T00:13:27;9.63;;;4.00;;
47329;SDS011;33060;50.178;7.570;2022-10-31T00:15:54;6.55;;;3.72;;
47329;SDS011;33060;50.178;7.570;2022-10-31T00:18:20;8.85;;;3.97;;
47329;SDS011;33060;50.178;7.570;2022-10-31T00:20:47;7.40;;;3.95;;
47329;SDS011;33060;50.178;7.570;2022-10-31T00:23:14;9.15;;;3.83;;
47329;SDS011;33060;50.178;7.570;2022-10-31T00:25:41;8.05;;;3.88;;
47329;SDS011;33060;50.178;7.570;2022-10-31T00:28:08;7.63;;;4.03;;
47329;SDS011;33060;50.178;7.570;2022-10-31T00:30:37;6.32;;;3.65;;
47329;SDS011;33060;50.178;7.570;2022-10-31T00:33:04;6.88;;;4.25;;
47329;SDS011;33060;50.178;7.570;2022-10-31T00:35:31;8.52;;;4.07;;
47329;SDS011;33060;50.178;7.570;2022-10-31T00:37:58;5.18;;;3.35;;
47329;SDS011;33060;50.178;7.570;2022-10-31T00:40:25;7.07;;;4.13;;
47329;SDS011;33060;50.178;7.570;2022-10-31T00:42:52;10.00;;;4.35;;
47329;SDS011;33060;50.178;7.570;2022-10-31T00:45:19;6.28;;;4.28;;
47329;SDS011;33060;50.178;7.570;2022-10-31T00:47:46;11.85;;;4.20;;
47329;SDS011;33060;50.178;7.570;2022-10-31T00:50:13;10.60;;;3.90;;
47329;SDS011;33060;50.178;7.570;2022-10-31T00:52:40;7.55;;;3.80;;
47329;SDS011;33060;50.178;7.570;2022-10-31T00:55:06;9.18;;;4.30;;
47329;SDS011;33060;50.178;7.570;2022-10-31T00:57:33;6.55;;;4.03;;
47329;SDS011;33060;50.178;7.570;2022-10-31T01:00:02;6.60;;;3.90;;
47329;SDS011;33060;50.178;7.570;2022-10-31T01:02:29;8.18;;;4.15;;
47329;SDS011;33060;50.178;7.570;2022-10-31T01:04:56;8.77;;;4.13;;
47329;SDS011;33060;50.178;7.570;2022-10-31T01:07:22;5.50;;;3.60;;
47329;SDS011;33060;50.178;7.570;2022-10-31T01:09:49;7.50;;;4.07;;
47329;SDS011;33060;50.178;7.570;2022-10-31T01:12:16;7.95;;;3.65;;
47329;SDS011;33060;50.178;7.570;2022-10-31T01:14:43;9.70;;;3.60;;
47329;SDS011;33060;50.178;7.570;2022-10-31T01:17:11;6.63;;;3.72;;
47329;SDS011;33060;50.178;7.570;2022-10-31T01:19:39;8.63;;;4.45;;
47329;SDS011;33060;50.178;7.570;2022-10-31T01:22:06;8.85;;;4.35;;
47329;SDS011;33060;50.178;7.570;2022-10-31T01:24:33;13.07;;;4.07;;
47329;SDS011;33060;50.178;7.570;2022-10-31T01:27:01;5.97;;;3.55;;
47329;SDS011;33060;50.178;7.570;2022-10-31T01:29:31;9.30;;;4.03;;
47329;SDS011;33060;50.178;7.570;2022-10-31T01:31:58;9.88;;;4.45;;
47329;SDS011;33060;50.178;7.570;2022-10-31T01:34:25;9.02;;;4.18;;
47329;SDS011;33060;50.178;7.570;2022-10-31T01:36:52;8.35;;;3.60;;
47329;SDS011;33060;50.178;7.570;2022-10-31T01:39:20;9.13;;;4.07;;
47329;SDS011;33060;50.178;7.570;2022-10-31T01:41:48;8.15;;;3.85;;
47329;SDS011;33060;50.178;7.570;2022-10-31T01:49:31;5.50;;;3.53;;
47329;SDS011;33060;50.178;7.570;2022-10-31T01:52:04;8.02;;;4.00;;
47329;SDS011;33060;50.178;7.570;2022-10-31T01:55:08;7.18;;;3.92;;
47329;SDS011;33060;50.178;7.570;2022-10-31T01:57:39;10.43;;;4.25;;
47329;SDS011;33060;50.178;7.570;2022-10-31T02:00:08;5.85;;;3.75;;
47329;SDS011;33060;50.178;7.570;2022-10-31T02:02:39;9.85;;;3.90;;
47329;SDS011;33060;50.178;7.570;2022-10-31T02:05:08;6.72;;;4.03;;
47329;SDS011;33060;50.178;7.570;2022-10-31T02:07:55;8.63;;;3.53;;
47329;SDS011;33060;50.178;7.570;2022-10-31T02:10:27;9.55;;;4.15;;
47329;SDS011;33060;50.178;7.570;2022-10-31T02:12:58;6.65;;;4.20;;
47329;SDS011;33060;50.178;7.570;2022-10-31T02:15:28;6.72;;;3.92;;
47329;SDS011;33060;50.178;7.570;2022-10-31T02:17:58;7.00;;;3.85;;
47329;SDS011;33060;50.178;7.570;2022-10-31T02:20:28;9.70;;;3.88;;
47329;SDS011;33060;50.178;7.570;2022-10-31T02:23:04;6.40;;;4.07;;
47329;SDS011;33060;50.178;7.570;2022-10-31T02:28:29;10.45;;;4.40;;
47329;SDS011;33060;50.178;7.570;2022-10-31T02:33:44;7.65;;;3.85;;
47329;SDS011;33060;50.178;7.570;2022-10-31T02:39:23;7.43;;;3.72;;
47329;SDS011;33060;50.178;7.570;2022-10-31T02:44:39;8.48;;;4.65;;
47329;SDS011;33060;50.178;7.570;2022-10-31T02:47:13;8.33;;;3.77;;
47329;SDS011;33060;50.178;7.570;2022-10-31T02:52:42;7.72;;;4.07;;
47329;SDS011;33060;50.178;7.570;2022-10-31T02:55:12;7.32;;;4.10;;
47329;SDS011;33060;50.178;7.570;2022-10-31T02:57:56;12.05;;;4.10;;
47329;SDS011;33060;50.178;7.570;2022-10-31T03:00:28;6.38;;;4.03;;
47329;SDS011;33060;50.178;7.570;2022-10-31T03:11:15;9.63;;;4.00;;
47329;SDS011;33060;50.178;7.570;2022-10-31T03:13:49;5.80;;;3.78;;
47329;SDS011;33060;50.178;7.570;2022-10-31T03:16:34;10.20;;;3.67;;
47329;SDS011;33060;50.178;7.570;2022-10-31T03:19:05;8.07;;;4.50;;
47329;SDS011;33060;50.178;7.570;2022-10-31T03:21:44;8.25;;;3.97;;
47329;SDS011;33060;50.178;7.570;2022-10-31T03:24:15;8.82;;;4.47;;
47329;SDS011;33060;50.178;7.570;2022-10-31T03:26:44;10.27;;;4.20;;
47329;SDS011;33060;50.178;7.570;2022-10-31T03:29:15;11.75;;;4.25;;
47329;SDS011;33060;50.178;7.570;2022-10-31T03:31:47;6.95;;;4.63;;
47329;SDS011;33060;50.178;7.570;2022-10-31T03:34:21;8.25;;;4.53;;
47329;SDS011;33060;50.178;7.570;2022-10-31T03:36:49;6.57;;;4.35;;
47329;SDS011;33060;50.178;7.570;2022-10-31T03:39:19;7.90;;;4.80;;
47329;SDS011;33060;50.178;7.570;2022-10-31T03:41:59;7.43;;;4.20;;
47329;SDS011;33060;50.178;7.570;2022-10-31T03:44:32;6.72;;;4.00;;
47329;SDS011;33060;50.178;7.570;2022-10-31T03:47:01;8.20;;;4.55;;
47329;SDS011;33060;50.178;7.570;2022-10-31T03:49:30;7.47;;;4.25;;
47329;SDS011;33060;50.178;7.570;2022-10-31T03:54:45;7.45;;;4.20;;
47329;SDS011;33060;50.178;7.570;2022-10-31T03:57:27;8.80;;;3.92;;
47329;SDS011;33060;50.178;7.570;2022-10-31T04:00:01;5.65;;;3.97;;
47329;SDS011;33060;50.178;7.570;2022-10-31T04:02:48;9.55;;;4.10;;
47329;SDS011;33060;50.178;7.570;2022-10-31T04:05:20;9.43;;;4.05;;
47329;SDS011;33060;50.178;7.570;2022-10-31T04:07:49;7.47;;;4.53;;
47329;SDS011;33060;50.178;7.570;2022-10-31T04:10:19;5.95;;;3.70;;
47329;SDS011;33060;50.178;7.570;2022-10-31T04:12:50;7.90;;;4.00;;
47329;SDS011;33060;50.178;7.570;2022-10-31T04:15:29;7.78;;;3.97;;
47329;SDS011;33060;50.178;7.570;2022-10-31T04:17:58;9.23;;;4.30;;
47329;SDS011;33060;50.178;7.570;2022-10-31T04:20:46;7.90;;;4.32;;
47329;SDS011;33060;50.178;7.570;2022-10-31T04:23:19;8.32;;;4.25;;
47329;SDS011;33060;50.178;7.570;2022-10-31T04:25:49;6.68;;;3.75;;
47329;SDS011;33060;50.178;7.570;2022-10-31T04:28:17;7.70;;;4.32;;
47329;SDS011;33060;50.178;7.570;2022-10-31T04:30:50;9.07;;;4.25;;
47329;SDS011;33060;50.178;7.570;2022-10-31T04:33:17;6.05;;;4.10;;
47329;SDS011;33060;50.178;7.570;2022-10-31T04:35:45;6.77;;;4.17;;
47329;SDS011;33060;50.178;7.570;2022-10-31T04:38:12;8.50;;;4.28;;
47329;SDS011;33060;50.178;7.570;2022-10-31T04:40:40;6.38;;;3.83;;
47329;SDS011;33060;50.178;7.570;2022-10-31T04:43:26;6.97;;;3.88;;
47329;SDS011;33060;50.178;7.570;2022-10-31T04:45:53;10.52;;;4.78;;
47329;SDS011;33060;50.178;7.570;2022-10-31T04:48:20;8.90;;;3.90;;
47329;SDS011;33060;50.178;7.570;2022-10-31T04:50:46;9.32;;;4.53;;
47329;SDS011;33060;50.178;7.570;2022-10-31T04:53:13;9.23;;;4.20;;
47329;SDS011;33060;50.178;7.570;2022-10-31T04:56:00;9.40;;;4.32;;
47329;SDS011;33060;50.178;7.570;2022-10-31T04:58:35;8.55;;;4.20;;
47329;SDS011;33060;50.178;7.570;2022-10-31T05:01:05;7.28;;;3.95;;
47329;SDS011;33060;50.178;7.570;2022-10-31T05:03:32;8.00;;;4.10;;
47329;SDS011;33060;50.178;7.570;2022-10-31T05:05:59;6.18;;;3.80;;
47329;SDS011;33060;50.178;7.570;2022-10-31T05:08:26;7.95;;;3.92;;
47329;SDS011;33060;50.178;7.570;2022-10-31T05:10:54;4.82;;;4.18;;
47329;SDS011;33060;50.178;7.570;2022-10-31T05:13:26;7.95;;;4.60;;
47329;SDS011;33060;50.178;7.570;2022-10-31T05:16:10;10.25;;;4.60;;
47329;SDS011;33060;50.178;7.570;2022-10-31T05:18:43;8.70;;;4.25;;
47329;SDS011;33060;50.178;7.570;2022-10-31T05:21:27;7.18;;;4.15;;
47329;SDS011;33060;50.178;7.570;2022-10-31T05:23:58;10.18;;;4.38;;
47329;SDS011;33060;50.178;7.570;2022-10-31T05:26:26;9.75;;;4.82;;
47329;SDS011;33060;50.178;7.570;2022-10-31T05:28:53;10.40;;;4.38;;
47329;SDS011;33060;50.178;7.570;2022-10-31T05:31:20;6.38;;;4.47;;
47329;SDS011;33060;50.178;7.570;2022-10-31T05:33:48;5.60;;;4.18;;
47329;SDS011;33060;50.178;7.570;2022-10-31T05:36:24;8.52;;;3.65;;
47329;SDS011;33060;50.178;7.570;2022-10-31T05:38:55;11.23;;;4.35;;
47329;SDS011;33060;50.178;7.570;2022-10-31T05:41:24;8.23;;;4.20;;
47329;SDS011;33060;50.178;7.570;2022-10-31T05:43:59;8.13;;;4.18;;
47329;SDS011;33060;50.178;7.570;2022-10-31T05:46:28;9.23;;;4.22;;
47329;SDS011;33060;50.178;7.570;2022-10-31T05:49:33;7.75;;;4.38;;
47329;SDS011;33060;50.178;7.570;2022-10-31T05:52:18;6.78;;;4.22;;
47329;SDS011;33060;50.178;7.570;2022-10-31T05:54:53;8.73;;;4.13;;
47329;SDS011;33060;50.178;7.570;2022-10-31T05:57:19;7.97;;;4.40;;
47329;SDS011;33060;50.178;7.570;2022-10-31T05:59:46;7.32;;;4.35;;
47329;SDS011;33060;50.178;7.570;2022-10-31T06:02:21;7.38;;;4.10;;
47329;SDS011;33060;50.178;7.570;2022-10-31T06:05:14;8.52;;;4.50;;
47329;SDS011;33060;50.178;7.570;2022-10-31T06:07:41;8.40;;;4.50;;
47329;SDS011;33060;50.178;7.570;2022-10-31T06:10:08;8.25;;;5.03;;
47329;SDS011;33060;50.178;7.570;2022-10-31T06:12:35;9.03;;;4.40;;
47329;SDS011;33060;50.178;7.570;2022-10-31T06:15:29;11.38;;;5.30;;
47329;SDS011;33060;50.178;7.570;2022-10-31T06:17:57;6.93;;;4.47;;
47329;SDS011;33060;50.178;7.570;2022-10-31T06:20:33;8.53;;;4.70;;
47329;SDS011;33060;50.178;7.570;2022-10-31T06:23:02;9.05;;;5.25;;
47329;SDS011;33060;50.178;7.570;2022-10-31T06:25:31;9.53;;;5.33;;
47329;SDS011;33060;50.178;7.570;2022-10-31T06:27:59;10.73;;;5.03;;
47329;SDS011;33060;50.178;7.570;2022-10-31T06:30:35;10.18;;;5.10;;
47329;SDS011;33060;50.178;7.570;2022-10-31T06:33:03;6.88;;;4.70;;
47329;SDS011;33060;50.178;7.570;2022-10-31T06:35:34;6.47;;;4.65;;
47329;SDS011;33060;50.178;7.570;2022-10-31T06:38:01;9.82;;;4.72;;
47329;SDS011;33060;50.178;7.570;2022-10-31T06:40:40;11.27;;;5.07;;
47329;SDS011;33060;50.178;7.570;2022-10-31T06:43:19;7.70;;;4.65;;
47329;SDS011;33060;50.178;7.570;2022-10-31T06:45:57;9.15;;;4.75;;
47329;SDS011;33060;50.178;7.570;2022-10-31T06:48:44;11.43;;;5.18;;
47329;SDS011;33060;50.178;7.570;2022-10-31T06:51:34;8.65;;;5.40;;
47329;SDS011;33060;50.178;7.570;2022-10-31T06:54:00;9.48;;;5.15;;
47329;SDS011;33060;50.178;7.570;2022-10-31T06:56:27;8.98;;;5.47;;
47329;SDS011;33060;50.178;7.570;2022-10-31T06:58:56;11.55;;;4.97;;
47329;SDS011;33060;50.178;7.570;2022-10-31T07:01:41;8.80;;;4.80;;
47329;SDS011;33060;50.178;7.570;2022-10-31T07:04:09;8.90;;;4.60;;
47329;SDS011;33060;50.178;7.570;2022-10-31T07:06:37;9.30;;;5.10;;
47329;SDS011;33060;50.178;7.570;2022-10-31T07:09:04;10.73;;;4.97;;
47329;SDS011;33060;50.178;7.570;2022-10-31T07:11:31;9.23;;;4.50;;
47329;SDS011;33060;50.178;7.570;2022-10-31T07:13:58;9.50;;;4.70;;
47329;SDS011;33060;50.178;7.570;2022-10-31T07:16:25;9.27;;;4.53;;
47329;SDS011;33060;50.178;7.570;2022-10-31T07:18:52;7.93;;;4.13;;
47329;SDS011;33060;50.178;7.570;2022-10-31T07:21:19;10.63;;;5.00;;
47329;SDS011;33060;50.178;7.570;2022-10-31T07:23:49;7.45;;;4.72;;
47329;SDS011;33060;50.178;7.570;2022-10-31T07:26:41;7.45;;;4.43;;
47329;SDS011;33060;50.178;7.570;2022-10-31T07:29:09;9.70;;;4.05;;
47329;SDS011;33060;50.178;7.570;2022-10-31T07:31:36;9.48;;;4.30;;
47329;SDS011;33060;50.178;7.570;2022-10-31T07:34:09;13.93;;;4.75;;
47329;SDS011;33060;50.178;7.570;2022-10-31T07:36:53;7.20;;;4.18;;
47329;SDS011;33060;50.178;7.570;2022-10-31T07:39:20;11.43;;;4.10;;
47329;SDS011;33060;50.178;7.570;2022-10-31T07:41:47;10.07;;;4.43;;
47329;SDS011;33060;50.178;7.570;2022-10-31T07:44:17;12.15;;;4.43;;
47329;SDS011;33060;50.178;7.570;2022-10-31T07:47:03;7.60;;;3.88;;
47329;SDS011;33060;50.178;7.570;2022-10-31T07:49:49;7.85;;;4.13;;
47329;SDS011;33060;50.178;7.570;2022-10-31T07:52:34;9.82;;;4.03;;
47329;SDS011;33060;50.178;7.570;2022-10-31T07:55:19;8.90;;;3.80;;
47329;SDS011;33060;50.178;7.570;2022-10-31T07:57:54;7.78;;;4.15;;
47329;SDS011;33060;50.178;7.570;2022-10-31T08:00:22;8.18;;;3.53;;
47329;SDS011;33060;50.178;7.570;2022-10-31T08:02:55;7.18;;;3.45;;
47329;SDS011;33060;50.178;7.570;2022-10-31T08:05:42;7.78;;;3.30;;
47329;SDS011;33060;50.178;7.570;2022-10-31T08:08:46;8.23;;;3.75;;
47329;SDS011;33060;50.178;7.570;2022-10-31T08:11:12;16.52;;;4.35;;
47329;SDS011;33060;50.178;7.570;2022-10-31T08:13:39;7.18;;;4.13;;
47329;SDS011;33060;50.178;7.570;2022-10-31T08:16:08;8.45;;;3.88;;
47329;SDS011;33060;50.178;7.570;2022-10-31T08:18:42;8.23;;;3.85;;
47329;SDS011;33060;50.178;7.570;2022-10-31T08:21:12;9.57;;;3.40;;
47329;SDS011;33060;50.178;7.570;2022-10-31T08:23:38;7.57;;;3.20;;
47329;SDS011;33060;50.178;7.570;2022-10-31T08:26:06;7.57;;;4.07;;
47329;SDS011;33060;50.178;7.570;2022-10-31T08:28:33;8.60;;;3.42;;
47329;SDS011;33060;50.178;7.570;2022-10-31T08:30:59;8.52;;;3.72;;
47329;SDS011;33060;50.178;7.570;2022-10-31T08:33:38;13.30;;;4.10;;
47329;SDS011;33060;50.178;7.570;2022-10-31T08:36:17;6.97;;;3.75;;
47329;SDS011;33060;50.178;7.570;2022-10-31T08:39:10;11.63;;;3.88;;
47329;SDS011;33060;50.178;7.570;2022-10-31T08:41:38;9.25;;;3.75;;
47329;SDS011;33060;50.178;7.570;2022-10-31T08:44:09;8.00;;;3.10;;
47329;SDS011;33060;50.178;7.570;2022-10-31T08:46:36;5.07;;;3.15;;
47329;SDS011;33060;50.178;7.570;2022-10-31T08:49:02;9.43;;;3.88;;
47329;SDS011;33060;50.178;7.570;2022-10-31T08:51:29;9.25;;;3.47;;
47329;SDS011;33060;50.178;7.570;2022-10-31T08:53:56;9.68;;;3.65;;
47329;SDS011;33060;50.178;7.570;2022-10-31T08:56:55;10.40;;;3.63;;
47329;SDS011;33060;50.178;7.570;2022-10-31T08:59:43;8.98;;;3.60;;
47329;SDS011;33060;50.178;7.570;2022-10-31T09:02:18;8.27;;;3.40;;
47329;SDS011;33060;50.178;7.570;2022-10-31T09:04:47;9.55;;;3.60;;
47329;SDS011;33060;50.178;7.570;2022-10-31T09:07:15;10.15;;;3.65;;
47329;SDS011;33060;50.178;7.570;2022-10-31T09:09:46;7.45;;;3.47;;
47329;SDS011;33060;50.178;7.570;2022-10-31T09:12:13;7.95;;;3.58;;
47329;SDS011;33060;50.178;7.570;2022-10-31T09:15:06;9.40;;;4.07;;
47329;SDS011;33060;50.178;7.570;2022-10-31T09:17:45;5.60;;;3.53;;
47329;SDS011;33060;50.178;7.570;2022-10-31T09:20:32;11.38;;;4.45;;
47329;SDS011;33060;50.178;7.570;2022-10-31T09:23:03;7.50;;;3.65;;
47329;SDS011;33060;50.178;7.570;2022-10-31T09:25:34;10.23;;;4.60;;
47329;SDS011;33060;50.178;7.570;2022-10-31T09:28:27;6.90;;;4.40;;
47329;SDS011;33060;50.178;7.570;2022-10-31T09:30:57;7.93;;;4.40;;
47329;SDS011;33060;50.178;7.570;2022-10-31T09:33:43;7.63;;;4.53;;
47329;SDS011;33060;50.178;7.570;2022-10-31T09:36:29;7.93;;;4.53;;
47329;SDS011;33060;50.178;7.570;2022-10-31T09:38:56;8.68;;;3.65;;
47329;SDS011;33060;50.178;7.570;2022-10-31T09:44:18;9.27;;;4.28;;
47329;SDS011;33060;50.178;7.570;2022-10-31T09:52:51;14.10;;;5.25;;
47329;SDS011;33060;50.178;7.570;2022-10-31T09:55:23;8.23;;;4.43;;
47329;SDS011;33060;50.178;7.570;2022-10-31T09:58:15;8.48;;;4.22;;
47329;SDS011;33060;50.178;7.570;2022-10-31T10:00:46;8.50;;;4.32;;
47329;SDS011;33060;50.178;7.570;2022-10-31T10:03:22;7.97;;;4.43;;
47329;SDS011;33060;50.178;7.570;2022-10-31T10:09:04;9.27;;;3.97;;
47329;SDS011;33060;50.178;7.570;2022-10-31T10:12:12;7.68;;;4.05;;
47329;SDS011;33060;50.178;7.570;2022-10-31T10:25:59;9.00;;;4.18;;
47329;SDS011;33060;50.178;7.570;2022-10-31T10:28:37;6.78;;;3.95;;
47329;SDS011;33060;50.178;7.570;2022-10-31T10:31:08;9.32;;;4.40;;
47329;SDS011;33060;50.178;7.570;2022-10-31T10:42:12;6.68;;;4.15;;
47329;SDS011;33060;50.178;7.570;2022-10-31T10:45:00;12.18;;;4.30;;
47329;SDS011;33060;50.178;7.570;2022-10-31T10:48:02;11.07;;;4.40;;
47329;SDS011;33060;50.178;7.570;2022-10-31T10:50:41;11.77;;;4.28;;
47329;SDS011;33060;50.178;7.570;2022-10-31T10:59:02;8.98;;;4.03;;
47329;SDS011;33060;50.178;7.570;2022-10-31T11:01:29;10.20;;;3.80;;
47329;SDS011;33060;50.178;7.570;2022-10-31T11:03:56;7.85;;;3.75;;
47329;SDS011;33060;50.178;7.570;2022-10-31T11:06:23;12.95;;;4.60;;
47329;SDS011;33060;50.178;7.570;2022-10-31T11:08:54;8.07;;;3.97;;
47329;SDS011;33060;50.178;7.570;2022-10-31T11:11:27;9.57;;;3.67;;
47329;SDS011;33060;50.178;7.570;2022-10-31T11:14:03;8.45;;;3.78;;
47329;SDS011;33060;50.178;7.570;2022-10-31T11:16:39;7.40;;;3.35;;
47329;SDS011;33060;50.178;7.570;2022-10-31T11:19:13;7.40;;;3.40;;
47329;SDS011;33060;50.178;7.570;2022-10-31T11:21:44;8.15;;;4.00;;
47329;SDS011;33060;50.178;7.570;2022-10-31T11:24:23;8.00;;;3.58;;
47329;SDS011;33060;50.178;7.570;2022-10-31T11:27:02;8.95;;;3.90;;
47329;SDS011;33060;50.178;7.570;2022-10-31T11:29:37;7.13;;;3.80;;
47329;SDS011;33060;50.178;7.570;2022-10-31T11:32:04;9.85;;;4.00;;
47329;SDS011;33060;50.178;7.570;2022-10-31T11:34:37;10.88;;;4.13;;
47329;SDS011;33060;50.178;7.570;2022-10-31T11:39:45;8.38;;;3.60;;
47329;SDS011;33060;50.178;7.570;2022-10-31T11:42:23;7.60;;;3.40;;
47329;SDS011;33060;50.178;7.570;2022-10-31T11:44:53;9.48;;;3.97;;
47329;SDS011;33060;50.178;7.570;2022-10-31T11:47:30;8.05;;;3.60;;
47329;SDS011;33060;50.178;7.570;2022-10-31T11:50:00;7.32;;;3.63;;
47329;SDS011;33060;50.178;7.570;2022-10-31T11:52:36;7.32;;;3.58;;
47329;SDS011;33060;50.178;7.570;2022-10-31T12:06:06;8.95;;;3.97;;
47329;SDS011;33060;50.178;7.570;2022-10-31T12:08:38;10.20;;;3.65;;
47329;SDS011;33060;50.178;7.570;2022-10-31T12:13:59;11.10;;;4.53;;
47329;SDS011;33060;50.178;7.570;2022-10-31T12:30:21;7.57;;;4.10;;
47329;SDS011;33060;50.178;7.570;2022-10-31T12:33:17;9.65;;;4.07;;
47329;SDS011;33060;50.178;7.570;2022-10-31T12:35:45;10.15;;;3.95;;
47329;SDS011;33060;50.178;7.570;2022-10-31T12:49:36;8.32;;;3.70;;
47329;SDS011;33060;50.178;7.570;2022-10-31T13:00:18;9.13;;;3.53;;
47329;SDS011;33060;50.178;7.570;2022-10-31T13:05:29;9.95;;;4.00;;
47329;SDS011;33060;50.178;7.570;2022-10-31T13:08:04;8.23;;;4.00;;
47329;SDS011;33060;50.178;7.570;2022-10-31T13:13:40;6.88;;;3.47;;
47329;SDS011;33060;50.178;7.570;2022-10-31T13:16:13;8.30;;;3.45;;
47329;SDS011;33060;50.178;7.570;2022-10-31T13:18:48;6.93;;;3.90;;
47329;SDS011;33060;50.178;7.570;2022-10-31T13:21:21;8.90;;;3.85;;
47329;SDS011;33060;50.178;7.570;2022-10-31T13:23:51;7.68;;;3.80;;
47329;SDS011;33060;50.178;7.570;2022-10-31T13:26:36;7.18;;;4.15;;
47329;SDS011;33060;50.178;7.570;2022-10-31T13:31:59;6.20;;;4.00;;
47329;SDS011;33060;50.178;7.570;2022-10-31T13:34:28;7.75;;;3.58;;
47329;SDS011;33060;50.178;7.570;2022-10-31T13:37:21;8.13;;;3.60;;
47329;SDS011;33060;50.178;7.570;2022-10-31T13:45:29;8.40;;;3.70;;
47329;SDS011;33060;50.178;7.570;2022-10-31T13:47:59;9.95;;;4.10;;
47329;SDS011;33060;50.178;7.570;2022-10-31T13:50:32;6.72;;;3.58;;
47329;SDS011;33060;50.178;7.570;2022-10-31T13:53:12;11.05;;;4.28;;
47329;SDS011;33060;50.178;7.570;2022-10-31T13:55:48;8.52;;;3.80;;
47329;SDS011;33060;50.178;7.570;2022-10-31T13:58:19;6.93;;;3.30;;
47329;SDS011;33060;50.178;7.570;2022-10-31T14:03:37;9.00;;;3.58;;
47329;SDS011;33060;50.178;7.570;2022-10-31T14:06:36;6.78;;;3.30;;
47329;SDS011;33060;50.178;7.570;2022-10-31T14:09:06;7.88;;;3.38;;
47329;SDS011;33060;50.178;7.570;2022-10-31T14:11:46;5.60;;;3.42;;
47329;SDS011;33060;50.178;7.570;2022-10-31T14:14:14;8.93;;;3.65;;
47329;SDS011;33060;50.178;7.570;2022-10-31T14:16:42;8.07;;;3.10;;
47329;SDS011;33060;50.178;7.570;2022-10-31T14:19:18;11.68;;;3.20;;
47329;SDS011;33060;50.178;7.570;2022-10-31T14:21:47;8.05;;;3.13;;
47329;SDS011;33060;50.178;7.570;2022-10-31T14:27:43;10.57;;;3.83;;
47329;SDS011;33060;50.178;7.570;2022-10-31T14:29:52;8.98;;;3.92;;
47329;SDS011;33060;50.178;7.570;2022-10-31T14:32:22;9.00;;;3.50;;
47329;SDS011;33060;50.178;7.570;2022-10-31T14:34:52;6.93;;;3.38;;
47329;SDS011;33060;50.178;7.570;2022-10-31T14:45:16;5.78;;;3.22;;
47329;SDS011;33060;50.178;7.570;2022-10-31T14:55:51;7.25;;;2.95;;
47329;SDS011;33060;50.178;7.570;2022-10-31T14:58:21;10.18;;;3.50;;
47329;SDS011;33060;50.178;7.570;2022-10-31T15:00:54;10.05;;;3.58;;
47329;SDS011;33060;50.178;7.570;2022-10-31T15:03:24;8.77;;;3.40;;
47329;SDS011;33060;50.178;7.570;2022-10-31T15:05:54;6.97;;;3.03;;
47329;SDS011;33060;50.178;7.570;2022-10-31T15:08:29;5.93;;;3.50;;
47329;SDS011;33060;50.178;7.570;2022-10-31T15:11:02;8.85;;;3.67;;
47329;SDS011;33060;50.178;7.570;2022-10-31T15:13:29;6.60;;;3.55;;
47329;SDS011;33060;50.178;7.570;2022-10-31T15:15:56;7.68;;;3.40;;
47329;SDS011;33060;50.178;7.570;2022-10-31T15:18:24;9.15;;;3.47;;
47329;SDS011;33060;50.178;7.570;2022-10-31T15:20:52;7.53;;;3.25;;
47329;SDS011;33060;50.178;7.570;2022-10-31T15:23:22;5.97;;;3.50;;
47329;SDS011;33060;50.178;7.570;2022-10-31T15:25:57;7.65;;;3.03;;
47329;SDS011;33060;50.178;7.570;2022-10-31T15:28:26;7.30;;;3.20;;
47329;SDS011;33060;50.178;7.570;2022-10-31T15:30:57;10.18;;;3.78;;
47329;SDS011;33060;50.178;7.570;2022-10-31T15:33:26;6.78;;;3.20;;
47329;SDS011;33060;50.178;7.570;2022-10-31T15:36:05;8.15;;;3.63;;
47329;SDS011;33060;50.178;7.570;2022-10-31T15:38:32;5.28;;;3.20;;
47329;SDS011;33060;50.178;7.570;2022-10-31T15:41:00;8.27;;;3.53;;
47329;SDS011;33060;50.178;7.570;2022-10-31T15:43:32;9.20;;;3.53;;
47329;SDS011;33060;50.178;7.570;2022-10-31T15:46:03;6.28;;;3.40;;
47329;SDS011;33060;50.178;7.570;2022-10-31T15:48:33;7.45;;;3.85;;
47329;SDS011;33060;50.178;7.570;2022-10-31T15:51:00;10.52;;;3.58;;
47329;SDS011;33060;50.178;7.570;2022-10-31T15:53:41;9.15;;;4.00;;
47329;SDS011;33060;50.178;7.570;2022-10-31T15:56:12;10.07;;;4.05;;
47329;SDS011;33060;50.178;7.570;2022-10-31T15:58:47;8.25;;;3.67;;
47329;SDS011;33060;50.178;7.570;2022-10-31T16:01:33;11.15;;;3.97;;
47329;SDS011;33060;50.178;7.570;2022-10-31T16:04:05;5.70;;;3.42;;
47329;SDS011;33060;50.178;7.570;2022-10-31T16:09:53;6.28;;;3.25;;
47329;SDS011;33060;50.178;7.570;2022-10-31T16:12:30;8.00;;;3.83;;
47329;SDS011;33060;50.178;7.570;2022-10-31T16:15:04;8.95;;;3.42;;
47329;SDS011;33060;50.178;7.570;2022-10-31T16:17:42;11.27;;;3.65;;
47329;SDS011;33060;50.178;7.570;2022-10-31T16:20:27;7.28;;;3.10;;
47329;SDS011;33060;50.178;7.570;2022-10-31T16:22:55;7.30;;;3.50;;
47329;SDS011;33060;50.178;7.570;2022-10-31T16:25:28;7.55;;;3.25;;
47329;SDS011;33060;50.178;7.570;2022-10-31T16:28:13;7.00;;;3.40;;
47329;SDS011;33060;50.178;7.570;2022-10-31T16:30:47;5.45;;;2.97;;
47329;SDS011;33060;50.178;7.570;2022-10-31T16:33:34;7.25;;;3.72;;
47329;SDS011;33060;50.178;7.570;2022-10-31T16:39:01;9.23;;;4.28;;
47329;SDS011;33060;50.178;7.570;2022-10-31T16:41:29;7.18;;;4.00;;
47329;SDS011;33060;50.178;7.570;2022-10-31T16:43:55;6.95;;;3.25;;
47329;SDS011;33060;50.178;7.570;2022-10-31T16:46:23;8.05;;;3.55;;
47329;SDS011;33060;50.178;7.570;2022-10-31T16:48:54;5.30;;;3.50;;
47329;SDS011;33060;50.178;7.570;2022-10-31T16:51:20;9.48;;;3.83;;
47329;SDS011;33060;50.178;7.570;2022-10-31T16:53:47;6.40;;;3.65;;
47329;SDS011;33060;50.178;7.570;2022-10-31T16:56:18;5.82;;;3.72;;
47329;SDS011;33060;50.178;7.570;2022-10-31T16:58:50;12.05;;;5.10;;
47329;SDS011;33060;50.178;7.570;2022-10-31T17:01:16;9.38;;;4.60;;
47329;SDS011;33060;50.178;7.570;2022-10-31T17:03:43;9.23;;;4.50;;
47329;SDS011;33060;50.178;7.570;2022-10-31T17:06:11;7.47;;;4.00;;
47329;SDS011;33060;50.178;7.570;2022-10-31T17:08:38;6.88;;;4.13;;
47329;SDS011;33060;50.178;7.570;2022-10-31T17:11:05;6.97;;;4.25;;
47329;SDS011;33060;50.178;7.570;2022-10-31T17:13:39;4.80;;;3.97;;
47329;SDS011;33060;50.178;7.570;2022-10-31T17:16:06;10.77;;;4.93;;
47329;SDS011;33060;50.178;7.570;2022-10-31T17:18:33;9.68;;;4.80;;
47329;SDS011;33060;50.178;7.570;2022-10-31T17:21:01;9.02;;;3.70;;
47329;SDS011;33060;50.178;7.570;2022-10-31T17:23:30;7.05;;;3.95;;
47329;SDS011;33060;50.178;7.570;2022-10-31T17:25:58;6.28;;;4.10;;
47329;SDS011;33060;50.178;7.570;2022-10-31T17:28:25;8.02;;;3.88;;
47329;SDS011;33060;50.178;7.570;2022-10-31T17:30:55;11.18;;;5.57;;
47329;SDS011;33060;50.178;7.570;2022-10-31T17:33:24;9.88;;;5.80;;
47329;SDS011;33060;50.178;7.570;2022-10-31T17:35:51;8.63;;;5.18;;
47329;SDS011;33060;50.178;7.570;2022-10-31T17:38:17;8.98;;;3.75;;
47329;SDS011;33060;50.178;7.570;2022-10-31T17:40:44;6.53;;;3.80;;
47329;SDS011;33060;50.178;7.570;2022-10-31T17:43:11;7.95;;;4.22;;
47329;SDS011;33060;50.178;7.570;2022-10-31T17:45:38;8.77;;;4.03;;
47329;SDS011;33060;50.178;7.570;2022-10-31T17:48:06;7.60;;;3.97;;
47329;SDS011;33060;50.178;7.570;2022-10-31T17:50:35;9.45;;;3.72;;
47329;SDS011;33060;50.178;7.570;2022-10-31T17:53:02;7.07;;;3.45;;
47329;SDS011;33060;50.178;7.570;2022-10-31T17:55:29;7.00;;;3.72;;
47329;SDS011;33060;50.178;7.570;2022-10-31T17:58:03;8.00;;;4.72;;